sensor_id;sensor_type;location;lat;lon;timestamp;P1;durP1;ratioP1;P2;durP2;ratioP2
11486;SDS011;10510;47.942;9.442;2024-03-08T00:01:31;31.00;;;12.75;;
11486;SDS011;10510;47.942;9.442;2024-03-08T00:04:32;30.27;;;12.65;;
11486;SDS011;10510;47.942;9.442;2024-03-08T00:06:33;32.88;;;13.02;;
11486;SDS011;10510;47.942;9.442;2024-03-08T00:08:33;27.55;;;13.07;;
11486;SDS011;10510;47.942;9.442;2024-03-08T00:10:34;40.35;;;15.48;;
11486;SDS011;10510;47.942;9.442;2024-03-08T00:12:35;36.42;;;14.70;;
11486;SDS011;10510;47.942;9.442;2024-03-08T00:14:35;33.42;;;16.00;;
11486;SDS011;10510;47.942;9.442;2024-03-08T00:16:37;49.38;;;24.60;;
11486;SDS011;10510;47.942;9.442;2024-03-08T00:18:38;35.50;;;17.75;;
11486;SDS011;10510;47.942;9.442;2024-03-08T00:20:38;36.13;;;13.77;;
11486;SDS011;10510;47.942;9.442;2024-03-08T00:22:39;36.25;;;14.40;;
11486;SDS011;10510;47.942;9.442;2024-03-08T00:24:39;38.40;;;14.15;;
11486;SDS011;10510;47.942;9.442;2024-03-08T00:26:40;31.33;;;13.30;;
11486;SDS011;10510;47.942;9.442;2024-03-08T00:28:42;39.67;;;15.05;;
11486;SDS011;10510;47.942;9.442;2024-03-08T00:30:43;33.47;;;15.43;;
11486;SDS011;10510;47.942;9.442;2024-03-08T00:32:43;37.95;;;15.05;;
11486;SDS011;10510;47.942;9.442;2024-03-08T00:34:43;29.98;;;13.40;;
11486;SDS011;10510;47.942;9.442;2024-03-08T00:36:44;26.45;;;13.30;;
11486;SDS011;10510;47.942;9.442;2024-03-08T00:41:06;41.63;;;15.05;;
11486;SDS011;10510;47.942;9.442;2024-03-08T00:43:07;32.25;;;14.40;;
11486;SDS011;10510;47.942;9.442;2024-03-08T00:45:09;33.05;;;14.25;;
11486;SDS011;10510;47.942;9.442;2024-03-08T00:47:10;31.70;;;13.38;;
11486;SDS011;10510;47.942;9.442;2024-03-08T00:49:11;32.03;;;13.45;;
11486;SDS011;10510;47.942;9.442;2024-03-08T00:51:12;27.23;;;12.00;;
11486;SDS011;10510;47.942;9.442;2024-03-08T00:53:12;28.67;;;11.85;;
11486;SDS011;10510;47.942;9.442;2024-03-08T00:55:13;32.92;;;15.10;;
11486;SDS011;10510;47.942;9.442;2024-03-08T00:57:13;32.40;;;14.23;;
11486;SDS011;10510;47.942;9.442;2024-03-08T00:59:14;39.13;;;14.93;;
11486;SDS011;10510;47.942;9.442;2024-03-08T01:01:14;42.10;;;14.43;;
11486;SDS011;10510;47.942;9.442;2024-03-08T01:03:17;33.42;;;13.50;;
11486;SDS011;10510;47.942;9.442;2024-03-08T01:05:18;39.35;;;15.77;;
11486;SDS011;10510;47.942;9.442;2024-03-08T01:07:19;32.97;;;13.82;;
11486;SDS011;10510;47.942;9.442;2024-03-08T01:09:19;31.95;;;13.38;;
11486;SDS011;10510;47.942;9.442;2024-03-08T01:11:21;35.70;;;14.95;;
11486;SDS011;10510;47.942;9.442;2024-03-08T01:13:22;38.85;;;14.45;;
11486;SDS011;10510;47.942;9.442;2024-03-08T01:15:23;38.85;;;13.65;;
11486;SDS011;10510;47.942;9.442;2024-03-08T01:17:23;33.90;;;14.52;;
11486;SDS011;10510;47.942;9.442;2024-03-08T01:19:24;32.88;;;15.35;;
11486;SDS011;10510;47.942;9.442;2024-03-08T01:21:24;33.90;;;13.98;;
11486;SDS011;10510;47.942;9.442;2024-03-08T01:23:25;29.48;;;13.27;;
11486;SDS011;10510;47.942;9.442;2024-03-08T01:25:25;30.95;;;13.30;;
11486;SDS011;10510;47.942;9.442;2024-03-08T01:27:26;29.85;;;12.07;;
11486;SDS011;10510;47.942;9.442;2024-03-08T01:32:17;34.22;;;14.48;;
11486;SDS011;10510;47.942;9.442;2024-03-08T01:34:19;40.03;;;15.65;;
11486;SDS011;10510;47.942;9.442;2024-03-08T01:36:19;34.22;;;15.65;;
11486;SDS011;10510;47.942;9.442;2024-03-08T01:38:20;40.65;;;16.08;;
11486;SDS011;10510;47.942;9.442;2024-03-08T01:40:21;44.53;;;17.85;;
11486;SDS011;10510;47.942;9.442;2024-03-08T01:42:22;57.25;;;21.30;;
11486;SDS011;10510;47.942;9.442;2024-03-08T01:44:22;38.45;;;15.75;;
11486;SDS011;10510;47.942;9.442;2024-03-08T01:46:24;47.17;;;20.20;;
11486;SDS011;10510;47.942;9.442;2024-03-08T01:48:24;39.92;;;16.42;;
11486;SDS011;10510;47.942;9.442;2024-03-08T01:50:25;38.22;;;15.27;;
11486;SDS011;10510;47.942;9.442;2024-03-08T01:52:25;45.60;;;18.60;;
11486;SDS011;10510;47.942;9.442;2024-03-08T01:54:26;48.38;;;20.88;;
11486;SDS011;10510;47.942;9.442;2024-03-08T01:56:27;47.97;;;19.13;;
11486;SDS011;10510;47.942;9.442;2024-03-08T01:58:27;34.63;;;15.73;;
11486;SDS011;10510;47.942;9.442;2024-03-08T02:00:29;40.83;;;15.45;;
11486;SDS011;10510;47.942;9.442;2024-03-08T02:02:30;35.85;;;14.90;;
11486;SDS011;10510;47.942;9.442;2024-03-08T02:04:32;38.03;;;15.43;;
11486;SDS011;10510;47.942;9.442;2024-03-08T02:06:32;40.15;;;15.65;;
11486;SDS011;10510;47.942;9.442;2024-03-08T02:08:33;38.55;;;16.13;;
11486;SDS011;10510;47.942;9.442;2024-03-08T02:10:34;41.00;;;15.95;;
11486;SDS011;10510;47.942;9.442;2024-03-08T02:12:35;43.20;;;17.50;;
11486;SDS011;10510;47.942;9.442;2024-03-08T02:14:35;36.58;;;15.73;;
11486;SDS011;10510;47.942;9.442;2024-03-08T02:16:36;45.83;;;17.92;;
11486;SDS011;10510;47.942;9.442;2024-03-08T02:18:37;43.67;;;16.50;;
11486;SDS011;10510;47.942;9.442;2024-03-08T02:20:39;49.47;;;19.02;;
11486;SDS011;10510;47.942;9.442;2024-03-08T02:22:39;49.33;;;18.90;;
11486;SDS011;10510;47.942;9.442;2024-03-08T02:24:40;42.53;;;15.32;;
11486;SDS011;10510;47.942;9.442;2024-03-08T02:26:41;43.45;;;16.00;;
11486;SDS011;10510;47.942;9.442;2024-03-08T02:28:42;30.88;;;14.23;;
11486;SDS011;10510;47.942;9.442;2024-03-08T02:30:45;41.92;;;15.23;;
11486;SDS011;10510;47.942;9.442;2024-03-08T02:32:48;39.20;;;15.02;;
11486;SDS011;10510;47.942;9.442;2024-03-08T02:34:49;38.67;;;14.95;;
11486;SDS011;10510;47.942;9.442;2024-03-08T02:36:50;41.95;;;15.88;;
11486;SDS011;10510;47.942;9.442;2024-03-08T02:38:50;43.65;;;15.68;;
11486;SDS011;10510;47.942;9.442;2024-03-08T02:40:51;46.58;;;16.23;;
11486;SDS011;10510;47.942;9.442;2024-03-08T02:42:52;42.60;;;14.82;;
11486;SDS011;10510;47.942;9.442;2024-03-08T02:44:52;34.83;;;13.98;;
11486;SDS011;10510;47.942;9.442;2024-03-08T02:46:53;43.80;;;15.52;;
11486;SDS011;10510;47.942;9.442;2024-03-08T02:48:55;37.15;;;15.27;;
11486;SDS011;10510;47.942;9.442;2024-03-08T02:50:55;40.67;;;16.27;;
11486;SDS011;10510;47.942;9.442;2024-03-08T02:52:56;43.72;;;17.67;;
11486;SDS011;10510;47.942;9.442;2024-03-08T02:54:56;49.45;;;18.20;;
11486;SDS011;10510;47.942;9.442;2024-03-08T02:56:56;53.30;;;17.95;;
11486;SDS011;10510;47.942;9.442;2024-03-08T02:58:57;51.42;;;18.58;;
11486;SDS011;10510;47.942;9.442;2024-03-08T03:00:57;45.60;;;16.23;;
11486;SDS011;10510;47.942;9.442;2024-03-08T03:02:57;47.75;;;17.70;;
11486;SDS011;10510;47.942;9.442;2024-03-08T03:04:58;52.28;;;18.33;;
11486;SDS011;10510;47.942;9.442;2024-03-08T03:06:58;50.20;;;20.05;;
11486;SDS011;10510;47.942;9.442;2024-03-08T03:08:59;59.75;;;19.70;;
11486;SDS011;10510;47.942;9.442;2024-03-08T03:10:59;50.05;;;19.02;;
11486;SDS011;10510;47.942;9.442;2024-03-08T03:12:59;48.08;;;19.08;;
11486;SDS011;10510;47.942;9.442;2024-03-08T03:15:00;52.22;;;17.67;;
11486;SDS011;10510;47.942;9.442;2024-03-08T03:17:00;60.25;;;21.63;;
11486;SDS011;10510;47.942;9.442;2024-03-08T03:19:02;45.28;;;17.05;;
11486;SDS011;10510;47.942;9.442;2024-03-08T03:21:05;45.53;;;17.60;;
11486;SDS011;10510;47.942;9.442;2024-03-08T03:23:07;47.55;;;18.85;;
11486;SDS011;10510;47.942;9.442;2024-03-08T03:25:09;58.38;;;20.10;;
11486;SDS011;10510;47.942;9.442;2024-03-08T03:27:09;57.72;;;21.20;;
11486;SDS011;10510;47.942;9.442;2024-03-08T03:29:12;51.40;;;19.23;;
11486;SDS011;10510;47.942;9.442;2024-03-08T03:31:13;52.78;;;19.08;;
11486;SDS011;10510;47.942;9.442;2024-03-08T03:33:14;41.60;;;16.73;;
11486;SDS011;10510;47.942;9.442;2024-03-08T03:35:19;50.10;;;18.70;;
11486;SDS011;10510;47.942;9.442;2024-03-08T03:37:20;55.10;;;17.65;;
11486;SDS011;10510;47.942;9.442;2024-03-08T03:39:21;54.58;;;18.85;;
11486;SDS011;10510;47.942;9.442;2024-03-08T03:41:22;51.13;;;20.25;;
11486;SDS011;10510;47.942;9.442;2024-03-08T03:43:23;53.45;;;18.70;;
11486;SDS011;10510;47.942;9.442;2024-03-08T03:45:24;58.40;;;20.05;;
11486;SDS011;10510;47.942;9.442;2024-03-08T03:47:25;59.63;;;21.35;;
11486;SDS011;10510;47.942;9.442;2024-03-08T03:49:27;55.10;;;19.33;;
11486;SDS011;10510;47.942;9.442;2024-03-08T03:51:29;58.65;;;19.92;;
11486;SDS011;10510;47.942;9.442;2024-03-08T03:53:30;54.42;;;18.88;;
11486;SDS011;10510;47.942;9.442;2024-03-08T03:55:30;53.97;;;19.50;;
11486;SDS011;10510;47.942;9.442;2024-03-08T03:57:30;51.40;;;19.45;;
11486;SDS011;10510;47.942;9.442;2024-03-08T03:59:31;52.88;;;19.05;;
11486;SDS011;10510;47.942;9.442;2024-03-08T04:01:32;53.55;;;17.70;;
11486;SDS011;10510;47.942;9.442;2024-03-08T04:03:34;55.85;;;17.20;;
11486;SDS011;10510;47.942;9.442;2024-03-08T04:05:34;40.05;;;17.35;;
11486;SDS011;10510;47.942;9.442;2024-03-08T04:07:35;48.10;;;16.80;;
11486;SDS011;10510;47.942;9.442;2024-03-08T04:09:35;40.40;;;17.08;;
11486;SDS011;10510;47.942;9.442;2024-03-08T04:11:36;42.97;;;16.60;;
11486;SDS011;10510;47.942;9.442;2024-03-08T04:13:36;51.78;;;18.02;;
11486;SDS011;10510;47.942;9.442;2024-03-08T04:15:37;48.13;;;19.63;;
11486;SDS011;10510;47.942;9.442;2024-03-08T04:17:37;61.72;;;19.75;;
11486;SDS011;10510;47.942;9.442;2024-03-08T04:19:38;51.13;;;18.65;;
11486;SDS011;10510;47.942;9.442;2024-03-08T04:21:39;49.92;;;18.00;;
11486;SDS011;10510;47.942;9.442;2024-03-08T04:23:40;49.75;;;17.38;;
11486;SDS011;10510;47.942;9.442;2024-03-08T04:25:40;38.50;;;17.33;;
11486;SDS011;10510;47.942;9.442;2024-03-08T04:27:42;46.80;;;16.10;;
11486;SDS011;10510;47.942;9.442;2024-03-08T04:29:42;59.60;;;21.65;;
11486;SDS011;10510;47.942;9.442;2024-03-08T04:31:42;53.42;;;21.25;;
11486;SDS011;10510;47.942;9.442;2024-03-08T04:33:43;45.67;;;18.40;;
11486;SDS011;10510;47.942;9.442;2024-03-08T04:35:45;40.25;;;15.88;;
11486;SDS011;10510;47.942;9.442;2024-03-08T04:37:46;51.95;;;17.98;;
11486;SDS011;10510;47.942;9.442;2024-03-08T04:39:46;46.92;;;16.73;;
11486;SDS011;10510;47.942;9.442;2024-03-08T04:41:47;44.22;;;18.67;;
11486;SDS011;10510;47.942;9.442;2024-03-08T04:43:47;47.65;;;17.73;;
11486;SDS011;10510;47.942;9.442;2024-03-08T04:45:47;47.75;;;18.48;;
11486;SDS011;10510;47.942;9.442;2024-03-08T04:47:48;52.05;;;20.92;;
11486;SDS011;10510;47.942;9.442;2024-03-08T04:49:49;54.78;;;23.00;;
11486;SDS011;10510;47.942;9.442;2024-03-08T04:51:50;38.22;;;15.43;;
11486;SDS011;10510;47.942;9.442;2024-03-08T04:53:50;46.45;;;17.17;;
11486;SDS011;10510;47.942;9.442;2024-03-08T04:55:51;43.85;;;16.90;;
11486;SDS011;10510;47.942;9.442;2024-03-08T04:57:51;49.05;;;17.15;;
11486;SDS011;10510;47.942;9.442;2024-03-08T04:59:53;48.53;;;19.08;;
11486;SDS011;10510;47.942;9.442;2024-03-08T05:01:53;45.05;;;17.30;;
11486;SDS011;10510;47.942;9.442;2024-03-08T05:03:53;47.67;;;18.67;;
11486;SDS011;10510;47.942;9.442;2024-03-08T05:05:55;44.17;;;17.48;;
11486;SDS011;10510;47.942;9.442;2024-03-08T05:07:56;53.13;;;18.63;;
11486;SDS011;10510;47.942;9.442;2024-03-08T05:09:56;49.90;;;18.88;;
11486;SDS011;10510;47.942;9.442;2024-03-08T05:11:57;52.65;;;19.67;;
11486;SDS011;10510;47.942;9.442;2024-03-08T05:13:59;45.55;;;17.80;;
11486;SDS011;10510;47.942;9.442;2024-03-08T05:16:00;41.20;;;16.98;;
11486;SDS011;10510;47.942;9.442;2024-03-08T05:18:00;50.72;;;19.23;;
11486;SDS011;10510;47.942;9.442;2024-03-08T05:20:01;47.83;;;19.13;;
11486;SDS011;10510;47.942;9.442;2024-03-08T05:22:01;46.28;;;18.92;;
11486;SDS011;10510;47.942;9.442;2024-03-08T05:24:03;38.05;;;14.57;;
11486;SDS011;10510;47.942;9.442;2024-03-08T05:26:05;43.45;;;15.38;;
11486;SDS011;10510;47.942;9.442;2024-03-08T05:28:05;44.17;;;15.38;;
11486;SDS011;10510;47.942;9.442;2024-03-08T05:30:05;40.65;;;15.85;;
11486;SDS011;10510;47.942;9.442;2024-03-08T05:32:06;41.17;;;16.60;;
11486;SDS011;10510;47.942;9.442;2024-03-08T05:34:07;45.78;;;16.15;;
11486;SDS011;10510;47.942;9.442;2024-03-08T05:36:10;46.42;;;15.30;;
11486;SDS011;10510;47.942;9.442;2024-03-08T05:38:11;42.95;;;16.65;;
11486;SDS011;10510;47.942;9.442;2024-03-08T05:40:13;49.40;;;17.67;;
11486;SDS011;10510;47.942;9.442;2024-03-08T05:42:13;35.08;;;13.77;;
11486;SDS011;10510;47.942;9.442;2024-03-08T05:44:13;43.97;;;15.32;;
11486;SDS011;10510;47.942;9.442;2024-03-08T05:46:15;41.25;;;15.38;;
11486;SDS011;10510;47.942;9.442;2024-03-08T05:48:16;41.80;;;15.48;;
11486;SDS011;10510;47.942;9.442;2024-03-08T05:50:18;44.42;;;16.20;;
11486;SDS011;10510;47.942;9.442;2024-03-08T05:52:19;46.47;;;16.13;;
11486;SDS011;10510;47.942;9.442;2024-03-08T05:54:19;47.90;;;15.38;;
11486;SDS011;10510;47.942;9.442;2024-03-08T05:56:22;46.70;;;17.40;;
11486;SDS011;10510;47.942;9.442;2024-03-08T05:58:24;42.60;;;15.57;;
11486;SDS011;10510;47.942;9.442;2024-03-08T06:00:24;45.03;;;17.13;;
11486;SDS011;10510;47.942;9.442;2024-03-08T06:02:26;48.40;;;16.85;;
11486;SDS011;10510;47.942;9.442;2024-03-08T06:04:26;49.92;;;18.92;;
11486;SDS011;10510;47.942;9.442;2024-03-08T06:06:27;39.47;;;16.02;;
11486;SDS011;10510;47.942;9.442;2024-03-08T06:08:27;45.42;;;17.65;;
11486;SDS011;10510;47.942;9.442;2024-03-08T06:10:29;44.70;;;15.82;;
11486;SDS011;10510;47.942;9.442;2024-03-08T06:12:30;48.38;;;16.92;;
11486;SDS011;10510;47.942;9.442;2024-03-08T06:14:33;47.47;;;19.25;;
11486;SDS011;10510;47.942;9.442;2024-03-08T06:16:33;43.25;;;16.88;;
11486;SDS011;10510;47.942;9.442;2024-03-08T06:18:35;41.35;;;15.02;;
11486;SDS011;10510;47.942;9.442;2024-03-08T06:20:42;48.22;;;16.67;;
11486;SDS011;10510;47.942;9.442;2024-03-08T06:22:43;46.00;;;15.52;;
11486;SDS011;10510;47.942;9.442;2024-03-08T06:24:44;44.83;;;15.75;;
11486;SDS011;10510;47.942;9.442;2024-03-08T06:26:45;38.50;;;15.13;;
11486;SDS011;10510;47.942;9.442;2024-03-08T06:28:45;47.75;;;16.23;;
11486;SDS011;10510;47.942;9.442;2024-03-08T06:30:45;46.63;;;16.20;;
11486;SDS011;10510;47.942;9.442;2024-03-08T06:32:46;33.67;;;14.48;;
11486;SDS011;10510;47.942;9.442;2024-03-08T06:34:46;47.22;;;15.27;;
11486;SDS011;10510;47.942;9.442;2024-03-08T06:36:47;54.60;;;16.70;;
11486;SDS011;10510;47.942;9.442;2024-03-08T06:38:48;47.88;;;15.68;;
11486;SDS011;10510;47.942;9.442;2024-03-08T06:40:51;51.38;;;17.17;;
11486;SDS011;10510;47.942;9.442;2024-03-08T06:42:52;58.97;;;15.52;;
11486;SDS011;10510;47.942;9.442;2024-03-08T06:44:53;52.47;;;14.52;;
11486;SDS011;10510;47.942;9.442;2024-03-08T06:46:56;57.22;;;17.80;;
11486;SDS011;10510;47.942;9.442;2024-03-08T06:48:56;52.17;;;17.60;;
11486;SDS011;10510;47.942;9.442;2024-03-08T06:50:56;52.45;;;16.88;;
11486;SDS011;10510;47.942;9.442;2024-03-08T06:52:57;47.17;;;15.65;;
11486;SDS011;10510;47.942;9.442;2024-03-08T06:54:57;53.97;;;18.02;;
11486;SDS011;10510;47.942;9.442;2024-03-08T06:56:58;52.90;;;16.23;;
11486;SDS011;10510;47.942;9.442;2024-03-08T06:58:58;45.45;;;16.42;;
11486;SDS011;10510;47.942;9.442;2024-03-08T07:00:58;80.97;;;16.33;;
11486;SDS011;10510;47.942;9.442;2024-03-08T07:03:00;52.38;;;15.43;;
11486;SDS011;10510;47.942;9.442;2024-03-08T07:05:01;55.58;;;15.00;;
11486;SDS011;10510;47.942;9.442;2024-03-08T07:07:03;39.28;;;15.35;;
11486;SDS011;10510;47.942;9.442;2024-03-08T07:09:04;44.88;;;16.65;;
11486;SDS011;10510;47.942;9.442;2024-03-08T07:11:05;42.83;;;15.13;;
11486;SDS011;10510;47.942;9.442;2024-03-08T07:13:05;50.10;;;14.55;;
11486;SDS011;10510;47.942;9.442;2024-03-08T07:15:06;42.90;;;16.35;;
11486;SDS011;10510;47.942;9.442;2024-03-08T07:17:07;42.05;;;14.57;;
11486;SDS011;10510;47.942;9.442;2024-03-08T07:19:09;48.17;;;15.77;;
11486;SDS011;10510;47.942;9.442;2024-03-08T07:21:09;52.50;;;15.75;;
11486;SDS011;10510;47.942;9.442;2024-03-08T07:23:13;57.90;;;14.85;;
11486;SDS011;10510;47.942;9.442;2024-03-08T07:25:33;44.33;;;15.18;;
11486;SDS011;10510;47.942;9.442;2024-03-08T07:27:35;41.53;;;16.15;;
11486;SDS011;10510;47.942;9.442;2024-03-08T07:29:36;47.25;;;16.08;;
11486;SDS011;10510;47.942;9.442;2024-03-08T07:31:36;54.58;;;16.75;;
11486;SDS011;10510;47.942;9.442;2024-03-08T07:34:06;43.40;;;16.17;;
11486;SDS011;10510;47.942;9.442;2024-03-08T07:36:07;48.53;;;16.92;;
11486;SDS011;10510;47.942;9.442;2024-03-08T07:38:08;42.47;;;15.52;;
11486;SDS011;10510;47.942;9.442;2024-03-08T07:40:09;62.05;;;17.08;;
11486;SDS011;10510;47.942;9.442;2024-03-08T07:42:10;70.88;;;15.40;;
11486;SDS011;10510;47.942;9.442;2024-03-08T07:44:11;59.60;;;18.15;;
11486;SDS011;10510;47.942;9.442;2024-03-08T07:46:14;46.00;;;16.42;;
11486;SDS011;10510;47.942;9.442;2024-03-08T07:48:14;63.90;;;16.75;;
11486;SDS011;10510;47.942;9.442;2024-03-08T07:50:16;57.55;;;21.88;;
11486;SDS011;10510;47.942;9.442;2024-03-08T07:52:16;50.95;;;17.38;;
11486;SDS011;10510;47.942;9.442;2024-03-08T07:54:18;57.28;;;17.02;;
11486;SDS011;10510;47.942;9.442;2024-03-08T07:56:18;56.05;;;18.77;;
11486;SDS011;10510;47.942;9.442;2024-03-08T07:58:19;47.45;;;17.10;;
11486;SDS011;10510;47.942;9.442;2024-03-08T08:00:20;59.15;;;16.95;;
11486;SDS011;10510;47.942;9.442;2024-03-08T08:02:21;67.78;;;21.45;;
11486;SDS011;10510;47.942;9.442;2024-03-08T08:04:22;57.28;;;16.58;;
11486;SDS011;10510;47.942;9.442;2024-03-08T08:06:24;80.53;;;27.88;;
11486;SDS011;10510;47.942;9.442;2024-03-08T08:08:25;52.97;;;17.85;;
11486;SDS011;10510;47.942;9.442;2024-03-08T08:10:26;44.15;;;17.02;;
11486;SDS011;10510;47.942;9.442;2024-03-08T08:12:28;56.28;;;17.65;;
11486;SDS011;10510;47.942;9.442;2024-03-08T08:14:29;47.45;;;14.98;;
11486;SDS011;10510;47.942;9.442;2024-03-08T08:16:30;42.35;;;16.50;;
11486;SDS011;10510;47.942;9.442;2024-03-08T08:18:34;47.60;;;15.48;;
11486;SDS011;10510;47.942;9.442;2024-03-08T08:20:35;49.88;;;15.75;;
11486;SDS011;10510;47.942;9.442;2024-03-08T08:22:36;45.00;;;18.63;;
11486;SDS011;10510;47.942;9.442;2024-03-08T08:24:36;98.00;;;33.53;;
11486;SDS011;10510;47.942;9.442;2024-03-08T08:26:36;82.72;;;28.10;;
11486;SDS011;10510;47.942;9.442;2024-03-08T08:28:37;85.82;;;31.25;;
11486;SDS011;10510;47.942;9.442;2024-03-08T08:30:38;61.63;;;23.67;;
11486;SDS011;10510;47.942;9.442;2024-03-08T08:32:38;55.67;;;18.73;;
11486;SDS011;10510;47.942;9.442;2024-03-08T08:34:39;52.45;;;19.20;;
11486;SDS011;10510;47.942;9.442;2024-03-08T08:36:39;46.10;;;17.90;;
11486;SDS011;10510;47.942;9.442;2024-03-08T08:38:40;44.45;;;17.02;;
11486;SDS011;10510;47.942;9.442;2024-03-08T08:40:42;40.60;;;16.75;;
11486;SDS011;10510;47.942;9.442;2024-03-08T08:42:43;43.80;;;15.55;;
11486;SDS011;10510;47.942;9.442;2024-03-08T08:44:43;40.40;;;16.20;;
11486;SDS011;10510;47.942;9.442;2024-03-08T08:46:43;38.25;;;16.13;;
11486;SDS011;10510;47.942;9.442;2024-03-08T08:48:44;49.22;;;17.10;;
11486;SDS011;10510;47.942;9.442;2024-03-08T08:50:47;48.17;;;16.80;;
11486;SDS011;10510;47.942;9.442;2024-03-08T08:52:47;39.83;;;16.35;;
11486;SDS011;10510;47.942;9.442;2024-03-08T08:54:48;40.67;;;15.98;;
11486;SDS011;10510;47.942;9.442;2024-03-08T08:56:49;44.38;;;17.00;;
11486;SDS011;10510;47.942;9.442;2024-03-08T08:58:50;42.58;;;15.77;;
11486;SDS011;10510;47.942;9.442;2024-03-08T09:00:50;42.40;;;14.73;;
11486;SDS011;10510;47.942;9.442;2024-03-08T09:02:52;42.70;;;17.33;;
11486;SDS011;10510;47.942;9.442;2024-03-08T09:04:55;42.08;;;16.17;;
11486;SDS011;10510;47.942;9.442;2024-03-08T09:06:55;45.85;;;15.60;;
11486;SDS011;10510;47.942;9.442;2024-03-08T09:08:56;42.08;;;16.35;;
11486;SDS011;10510;47.942;9.442;2024-03-08T09:10:57;49.15;;;15.65;;
11486;SDS011;10510;47.942;9.442;2024-03-08T09:12:59;48.33;;;18.05;;
11486;SDS011;10510;47.942;9.442;2024-03-08T09:15:00;43.20;;;14.70;;
11486;SDS011;10510;47.942;9.442;2024-03-08T09:17:00;38.13;;;15.40;;
11486;SDS011;10510;47.942;9.442;2024-03-08T09:19:00;43.72;;;14.80;;
11486;SDS011;10510;47.942;9.442;2024-03-08T09:21:01;43.10;;;15.60;;
11486;SDS011;10510;47.942;9.442;2024-03-08T09:23:01;37.50;;;15.43;;
11486;SDS011;10510;47.942;9.442;2024-03-08T09:25:01;39.20;;;15.70;;
11486;SDS011;10510;47.942;9.442;2024-03-08T09:27:05;39.70;;;15.57;;
11486;SDS011;10510;47.942;9.442;2024-03-08T09:29:05;41.47;;;14.38;;
11486;SDS011;10510;47.942;9.442;2024-03-08T09:31:07;35.35;;;14.70;;
11486;SDS011;10510;47.942;9.442;2024-03-08T09:33:07;36.72;;;15.45;;
11486;SDS011;10510;47.942;9.442;2024-03-08T09:35:08;52.72;;;16.38;;
11486;SDS011;10510;47.942;9.442;2024-03-08T09:37:08;38.97;;;14.63;;
11486;SDS011;10510;47.942;9.442;2024-03-08T09:39:08;35.58;;;13.80;;
11486;SDS011;10510;47.942;9.442;2024-03-08T09:41:09;39.13;;;15.63;;
11486;SDS011;10510;47.942;9.442;2024-03-08T09:43:10;43.92;;;16.48;;
11486;SDS011;10510;47.942;9.442;2024-03-08T09:45:12;40.70;;;15.63;;
11486;SDS011;10510;47.942;9.442;2024-03-08T09:47:16;41.55;;;16.30;;
11486;SDS011;10510;47.942;9.442;2024-03-08T09:49:17;42.72;;;16.27;;
11486;SDS011;10510;47.942;9.442;2024-03-08T09:51:18;37.85;;;14.93;;
11486;SDS011;10510;47.942;9.442;2024-03-08T09:53:23;39.35;;;16.27;;
11486;SDS011;10510;47.942;9.442;2024-03-08T09:55:24;40.13;;;16.80;;
11486;SDS011;10510;47.942;9.442;2024-03-08T09:57:28;49.42;;;17.23;;
11486;SDS011;10510;47.942;9.442;2024-03-08T09:59:29;44.65;;;17.92;;
11486;SDS011;10510;47.942;9.442;2024-03-08T10:01:38;68.60;;;24.08;;
11486;SDS011;10510;47.942;9.442;2024-03-08T10:03:39;71.55;;;23.48;;
11486;SDS011;10510;47.942;9.442;2024-03-08T10:05:40;73.93;;;27.58;;
11486;SDS011;10510;47.942;9.442;2024-03-08T10:07:41;58.30;;;22.50;;
11486;SDS011;10510;47.942;9.442;2024-03-08T10:09:42;44.22;;;15.55;;
11486;SDS011;10510;47.942;9.442;2024-03-08T10:11:49;42.80;;;17.23;;
11486;SDS011;10510;47.942;9.442;2024-03-08T10:13:49;42.05;;;15.77;;
11486;SDS011;10510;47.942;9.442;2024-03-08T10:15:50;48.33;;;19.00;;
11486;SDS011;10510;47.942;9.442;2024-03-08T10:17:51;37.38;;;15.70;;
11486;SDS011;10510;47.942;9.442;2024-03-08T10:19:53;45.08;;;18.20;;
11486;SDS011;10510;47.942;9.442;2024-03-08T10:21:53;44.13;;;18.85;;
11486;SDS011;10510;47.942;9.442;2024-03-08T10:23:54;46.55;;;17.98;;
11486;SDS011;10510;47.942;9.442;2024-03-08T10:25:56;48.35;;;17.75;;
11486;SDS011;10510;47.942;9.442;2024-03-08T10:27:58;52.33;;;19.05;;
11486;SDS011;10510;47.942;9.442;2024-03-08T10:29:58;44.83;;;17.60;;
11486;SDS011;10510;47.942;9.442;2024-03-08T10:31:58;44.03;;;16.17;;
11486;SDS011;10510;47.942;9.442;2024-03-08T10:33:59;53.72;;;21.50;;
11486;SDS011;10510;47.942;9.442;2024-03-08T10:36:01;42.28;;;15.35;;
11486;SDS011;10510;47.942;9.442;2024-03-08T10:38:03;51.45;;;19.73;;
11486;SDS011;10510;47.942;9.442;2024-03-08T10:40:07;46.00;;;17.92;;
11486;SDS011;10510;47.942;9.442;2024-03-08T10:42:16;43.55;;;16.48;;
11486;SDS011;10510;47.942;9.442;2024-03-08T10:48:50;36.95;;;13.88;;
11486;SDS011;10510;47.942;9.442;2024-03-08T10:50:53;35.05;;;13.98;;
11486;SDS011;10510;47.942;9.442;2024-03-08T10:52:55;36.80;;;14.30;;
11486;SDS011;10510;47.942;9.442;2024-03-08T10:54:57;42.65;;;15.38;;
11486;SDS011;10510;47.942;9.442;2024-03-08T10:56:59;39.45;;;14.90;;
11486;SDS011;10510;47.942;9.442;2024-03-08T10:59:01;36.75;;;15.32;;
11486;SDS011;10510;47.942;9.442;2024-03-08T11:01:04;33.72;;;14.77;;
11486;SDS011;10510;47.942;9.442;2024-03-08T11:03:06;44.67;;;15.88;;
11486;SDS011;10510;47.942;9.442;2024-03-08T11:05:09;33.03;;;14.45;;
11486;SDS011;10510;47.942;9.442;2024-03-08T11:07:13;38.83;;;14.45;;
11486;SDS011;10510;47.942;9.442;2024-03-08T11:09:30;30.00;;;12.98;;
11486;SDS011;10510;47.942;9.442;2024-03-08T11:11:35;38.55;;;15.70;;
11486;SDS011;10510;47.942;9.442;2024-03-08T11:13:37;44.70;;;15.40;;
11486;SDS011;10510;47.942;9.442;2024-03-08T11:15:40;32.72;;;13.40;;
11486;SDS011;10510;47.942;9.442;2024-03-08T11:17:45;34.20;;;13.57;;
11486;SDS011;10510;47.942;9.442;2024-03-08T11:19:48;32.80;;;13.50;;
11486;SDS011;10510;47.942;9.442;2024-03-08T11:22:02;31.58;;;12.80;;
11486;SDS011;10510;47.942;9.442;2024-03-08T11:24:06;32.75;;;14.13;;
11486;SDS011;10510;47.942;9.442;2024-03-08T11:26:20;33.70;;;13.00;;
11486;SDS011;10510;47.942;9.442;2024-03-08T11:28:24;30.88;;;12.73;;
11486;SDS011;10510;47.942;9.442;2024-03-08T11:30:24;33.00;;;13.18;;
11486;SDS011;10510;47.942;9.442;2024-03-08T11:32:29;26.40;;;13.43;;
11486;SDS011;10510;47.942;9.442;2024-03-08T11:34:30;34.83;;;14.25;;
11486;SDS011;10510;47.942;9.442;2024-03-08T11:36:30;38.80;;;16.23;;
11486;SDS011;10510;47.942;9.442;2024-03-08T11:38:37;33.40;;;14.52;;
11486;SDS011;10510;47.942;9.442;2024-03-08T11:40:40;32.78;;;13.48;;
11486;SDS011;10510;47.942;9.442;2024-03-08T11:42:45;31.20;;;13.95;;
11486;SDS011;10510;47.942;9.442;2024-03-08T11:44:47;31.50;;;13.52;;
11486;SDS011;10510;47.942;9.442;2024-03-08T11:46:48;31.17;;;13.52;;
11486;SDS011;10510;47.942;9.442;2024-03-08T11:48:48;31.80;;;13.25;;
11486;SDS011;10510;47.942;9.442;2024-03-08T11:50:58;35.80;;;14.85;;
11486;SDS011;10510;47.942;9.442;2024-03-08T11:53:03;36.47;;;16.73;;
11486;SDS011;10510;47.942;9.442;2024-03-08T11:55:04;38.65;;;16.25;;
11486;SDS011;10510;47.942;9.442;2024-03-08T11:57:05;37.47;;;14.35;;
11486;SDS011;10510;47.942;9.442;2024-03-08T11:59:10;39.33;;;16.80;;
11486;SDS011;10510;47.942;9.442;2024-03-08T12:01:12;27.90;;;13.32;;